Terminal Aerodrome Forecast
Issued by NWS Bismarck, ND

Home | Current Version | Previous Version | Graphics & Text | Print | Product List | Glossary On
Versions: 1 2 3 4 5 6 7 8 9 10 11 12 13 14 15 16 17 18 19 20 21 22 23
249
FTUS43 KBIS 310317 AAD
TAFBIS
TAF AMD
KBIS 310317Z 3103/3124 36014KT P6SM -SHRA OVC035
     FM310500 30008KT P6SM SCT040 BKN100
     FM311000 27012G20KT P6SM SCT150
     FM311500 27014KT P6SM BKN025
     FM311800 26015KT 6SM -SHRA BR OVC025=

USA.gov is the U.S. government's official web portal to all federal, state and local government web resources and services.